Tiempo atmosférico en la estación meteorológica de Aranda De Duero, Burgos (790 m.)



Fecha
DESCASC
Temp. máxima en grados centígrados (hora)
DESCASC
Temp. mínima en grados centígrados (hora)
DESCASC
Temp. media en grados centígrados
DESCASC
Racha de viento máxima en m/sg (hora)
DESCASC
Velocidad máxima media en intervalos de 10 minutos(hora)
DESCASC
Precipitaciones diarias en mm
DESCASC
Precipitaciones de 00:00 a 06:00 en mm
DESCASC
Precipitaciones de 06:00 a 12:00 en mm
DESCASC
Precipitaciones de 12:00 a 18:00 en mm
DESCASC
Precipitaciones de 18:00 a 24:00 en mm
DESCASC
31-03-2020 7.5 (17:10) -0.7 (07:20) 3.4 16.67 (14:00) 7.5 (23:00) 0.4 0.4 0 0 0
30-03-2020 6.1 (16:30) 1.1 (07:20) 3.6 9.44 (02:40) 4.44 (03:40) 0 0 0 0 0
29-03-2020 16.2 (15:50) -1.9 (-00:0) 7.2 12.22 (21:20) 5.28 (20:10) 0 0 0 0 0
28-03-2020 15.9 (14:10) -2.4 (-00:0) 6.7 6.67 (15:50) 3.33 (11:20) 0 0 0 0 0
27-03-2020 12.2 (15:20) -3.4 (-00:0) 4.4 11.94 (12:10) 5.28 (12:20) 0 0 0 0 0
26-03-2020 10.1 (15:20) -1.9 (-00:0) 4.1 12.22 (13:50) 6.67 (13:40) 0 0 0 0 0
25-03-2020 15.7 (13:50) -1.1 (-00:0) 7.3 9.17 (15:00) 4.72 (18:00) 0 0 0 0 0
24-03-2020 14 (15:50) 2.9 (00:00) 8.5 12.5 (15:40) 6.11 (11:30) 0 0 0 0 0
23-03-2020 14.1 (14:10) 1.2 (00:00) 7.7 11.67 (17:50) 6.39 (18:00) 5 0 5 0 0
22-03-2020 14.7 (14:50) 4.3 (23:59) 9.5 9.72 (15:20) 5 (15:20) 2 0 0 1.2 0.8
21-03-2020 14 (12:40) 5.2 (00:00) 9.6 10.56 (12:00) 5 (10:50) 0.4 0 0 0 0.4
20-03-2020 15.9 (14:50) 6.1 (00:00) 11 8.89 (09:30) 4.72 (09:30) 0 0 0 0 0
19-03-2020 16.5 (16:40) 7.2 (00:00) 11.8 11.67 (10:40) 5.56 (12:00) 0 0 0 0 0
18-03-2020 18.3 (16:30) 7.8 (00:00) 13 10.28 (10:30) 5.56 (12:40) 0 0 0 0 0
17-03-2020 13.5 (17:40) 4.5 (00:00) 9 13.33 (15:20) 6.67 (14:30) 1.6 0 1.6 0 0
16-03-2020 9.3 (00:00) 0.7 (00:00) 5 12.22 (12:50) 5 (12:30) 11.4 0 0 8 3.4
15-03-2020 20.8 (15:10) -2 (-00:0) 9.4 11.94 (17:00) 5 (14:40) 0.2 0 0 0.2 0
14-03-2020 16.6 (17:20) -1.8 (-00:0) 7.4 4.72 (14:20) 2.22 (17:30) 0 0 0 0 0
13-03-2020 18 (15:30) 4.6 (08:10) 11.3 8.06 (18:40) 3.89 (17:50) 0 0 0 0 0
12-03-2020 23.8 (14:40) 6.4 (00:00) 15.1 7.78 (16:10) 4.17 (17:30) 0 0 0 0 0
11-03-2020 23.6 (16:20) 1.5 (00:00) 12.6 6.94 (16:00) 3.06 (16:00) 0 0 0 0 0
10-03-2020 21.2 (16:30) 0.6 (00:00) 10.9 7.5 (16:30) 3.61 (16:50) 0 0 0 0 0
09-03-2020 14.5 (14:30) 1.8 (00:00) 8.1 8.33 (14:50) 3.33 (14:40) 0 0 0 0 0
08-03-2020 15.4 (14:30) -2.6 (-00:0) 6.4 8.89 (13:10) 4.17 (13:20) 0 0 0 0 0
07-03-2020 13.6 (16:40) -0.9 (-00:0) 6.4 6.67 (13:50) 2.78 (08:40) 0 0 0 0 0
06-03-2020 10.2 (15:00) -0.8 (-00:0) 4.7 16.94 (11:40) 7.22 (13:40) 0 0 0 0 0
05-03-2020 13.1 (15:10) 5 (00:00) 9.1 18.61 (12:30) 8.06 (12:30) 0.2 0.2 0 0 0
04-03-2020 14 (16:00) 10.4 (00:00) 12.2 11.67 (16:10) 6.11 (16:10) 0 0 0 0 0
03-03-2020 16.7 (16:50) 3.9 (00:00) 10.3 17.22 (16:30) 7.22 (16:00) 0.2 0 0 0.2 0
02-03-2020 11.2 (03:00) 4 (00:00) 7.6 26.94 (05:30) 14.17 (03:00) 1.4 0.8 0.4 0 0.2

Gráficas

Temp. máximas Temp. mínimas Temp. medias Precipitaciones Rachas de viento máximas Velocidades máximas media en intervalos de 10 minutos

Datos horarios

Fecha y hora oficial Temperatura (ºC) Velocidad del viento (km/h) Dirección del viento Racha (km/h) Dirección de racha Precipitación (mm) Presión (hPa) Tendencia (hPa) Humedad (%)
2020-03-31 23:00:00 5.5 27 Este 49 Este 0 919 1.1 76
2020-03-31 22:00:00 5.4 22 Este 48 Sudeste 0 918.5 1.2 77
2020-03-31 21:00:00 6 23 Este 48 Sudeste 0 918.2 1 73
2020-03-31 20:00:00 6.4 18 Este 50 Este 0 917.9 1.4 72
2020-03-31 19:00:00 6.1 18 Este 50 Este 0 917.3 0.6 74
2020-03-31 18:00:00 6.2 23 Este 56 Este 0 917.2 0.3 68
2020-03-31 17:00:00 7.2 22 Este 57 Este 0 916.5 -0.6 65
2020-03-31 16:00:00 5.2 21 Este 49 Este 0 916.7 -0.5 68
2020-03-31 15:00:00 5 21 Este 53 Sudeste 0 916.9 -0.4 69
2020-03-31 14:00:00 3.8 25 Este 60 Sudeste 0 917.1 0 71
2020-03-31 13:00:00 3 25 Este 53 Este 0 917.2 0.2 71
2020-03-31 12:00:00 1.9 23 Este 50 Este 0 917.3 -0.2 74
2020-03-31 11:00:00 1.3 22 Este 48 Este 0 917.1 -0.4 75
2020-03-31 10:00:00 0.6 24 Este 48 Este 0 917 -0.5 75
2020-03-31 09:00:00 -0.1 16 Este 37 Este 0 917.5 -0.1 77
2020-03-31 08:00:00 -0.7 16 Este 33 Este 0 917.5 -0.9 78
2020-03-31 07:00:00 -0.5 13 Este 34 Este 0 917.5 -2 78
2020-03-31 06:00:00 -0.3 11 Este 29 Este 0 917.6 -2.6 81
2020-03-31 05:00:00 -0.3 10 Este 27 Este 0 918.4 -2.5 83
2020-03-31 04:00:00 -0.3 11 Este 26 Este 0.4 919.5 -1.7 85
2020-03-31 03:00:00 -0.3 13 Este 36 Sudeste 0 920.2 -1.3 83
2020-03-31 02:00:00 0.3 18 Este 39 Este 0 920.9 -0.6 76
2020-03-31 01:00:00 2.4 12 Este 26 Este 0 921.2 -0.4 55
2020-03-31 00:00:00 2.4 9 Nordeste 27 Nordeste 0 921.5 0.1 47
2020-03-30 23:00:00 2.5 12 Nordeste 24 Nordeste 0 921.5 -0.1 46
2020-03-30 22:00:00 3 11 Nordeste 33 Nordeste 0 921.6 -0.4 42
2020-03-30 21:00:00 3.3 10 Nordeste 31 Norte 0 921.4 -0.8 43
2020-03-30 20:00:00 3.9 15 Norte 28 Nordeste 0 921.6 -0.8 40
2020-03-30 19:00:00 5 12 Nordeste 29 Este 0 922 -1.3 34
2020-03-30 18:00:00 5.3 13 Nordeste 32 Nordeste 0 922.2 -1.8 32
2020-03-30 17:00:00 5.8 11 Nordeste 31 Norte 0 922.4 -2.1 32
2020-03-30 16:00:00 5.4 12 Nordeste 31 Norte 0 923.3 -1.8 35
2020-03-30 15:00:00 5.1 13 Norte 26 Norte 0 924 -1.4 38
2020-03-30 14:00:00 5 9 Nordeste 26 Nordeste 0 924.5 -1 42
2020-03-30 13:00:00 3.6 9 Nordeste 24 Norte 0 925.1 -0.4 43
2020-03-30 12:00:00 2.8 15 Norte 31 Norte 0 925.4 0.1 44
2020-03-30 11:00:00 2.5 12 Norte 32 Norte 0 925.5 0.6 52
2020-03-30 10:00:00 2.1 9 Norte 26 Norte 0 925.5 0.7 48
2020-03-30 09:00:00 1.5 10 Norte 22 Norte 0 925.3 0.4 57
2020-03-30 08:00:00 1.3 3 Noroeste 30 Norte 0 924.9 -0.3 68
2020-03-30 07:00:00 1.5 12 Norte 26 Noroeste 0 924.8 -0.6 68
2020-03-30 06:00:00 2.3 10 Norte 31 Norte 0 924.9 -1.1 71
2020-03-30 05:00:00 3.2 11 Norte 32 Norte 0 925.2 -1 65
2020-03-30 04:00:00 3.7 12 Norte 33 Norte 0 925.4 -1.3 66
2020-03-30 03:00:00 4.4 14 Norte 34 Norte 0 926 -0.8 65
2020-03-30 02:00:00 5.1 10 Nordeste 27 Norte 0 926.2 -0.6 65
2020-03-30 01:00:00 5.8 6 Nordeste 22 Norte 0 926.7 0.3 63
2020-03-30 00:00:00 5.9 7 Nordeste 21 Norte 0 926.8 1.1 67
2020-03-29 23:00:00 6.9 5 Nordeste 31 Norte 0 926.8 1.4 62
2020-03-29 22:00:00 7.7 13 Norte 44 Norte 0 926.4 1.3 59
2020-03-29 21:00:00 9 14 Norte 41 Norte 0 925.7 0.7 50
2020-03-29 20:00:00 11.7 17 Norte 38 Norte 0 925.4 0.1 38
2020-03-29 19:00:00 13.5 11 Norte 35 Noroeste 0 925.1 -0.6 33
2020-03-29 18:00:00 14.7 12 Norte 33 Noroeste 0 925 -1.3 25
2020-03-29 17:00:00 15.1 15 Norte 33 Noroeste 0 925.3 -1.6 27
2020-03-29 16:00:00 15.8 13 Norte 29 Norte 0 925.7 -1.8 25
2020-03-29 15:00:00 15.7 11 Norte 24 Norte 0 926.3 -1.6 29
2020-03-29 14:00:00 14.9 8 Noroeste 19 Norte 0 926.9 -1.1 29
2020-03-29 13:00:00 13.5 5 Oeste 19 Noroeste 0 927.5 -0.5 37
2020-03-29 12:00:00 11.3 5 Oeste 13 Oeste 0 927.9 -0.1 45
2020-03-29 11:00:00 8.4 4 Norte 9 Noroeste 0 928 0.4 55
2020-03-29 10:00:00 4.5 3 Este 6 Este 0 928 0.6 67
2020-03-29 09:00:00 0.7 0 Calma 7 Sudeste 0 928 0.7 77
2020-03-29 08:00:00 -1.7 3 Este 5 Este 0 927.6 0.2 82
2020-03-29 07:00:00 -1.6 0 Calma 4 Este 0 927.4 -0.2 81
2020-03-29 06:00:00 -1.3 0 Calma 4 Sudeste 0 927.3 -0.5 80
2020-03-29 05:00:00 -0.7 0 Calma 7 Sudoeste 0 927.4 -0.4 80
2020-03-29 03:00:00 0.7 0 Calma 5 Este 0 927.8 0.3 73
2020-03-29 01:00:00 1.9 4 Este 6 Este 0 927.8 0.5 70
2020-03-29 00:00:00 2.7 2 Este 3 Este 0 927.7 0.9 68
2020-03-28 23:00:00 4 0 Calma 8 Sudeste 0 927.5 1.5 62
2020-03-28 22:00:00 5.6 3 Este 7 Sudeste 0 927.3 1.7 57
2020-03-28 21:00:00 8.1 2 Este 5 Este 0 926.8 1.6 50
2020-03-28 20:00:00 11.9 3 Este 12 Nordeste 0 926 1 37
2020-03-28 19:00:00 14.2 3 Sudeste 14 Sudeste 0 925.6 0.3 27
2020-03-28 18:00:00 14.9 5 Sudeste 17 Este 0 925.2 -0.5 26
2020-03-28 17:00:00 15.1 8 Este 19 Sudeste 0 925 -1.2 24
2020-03-28 16:00:00 15.1 4 Nordeste 24 Nordeste 0 925.3 -1.3 25
2020-03-28 15:00:00 15 10 Este 24 Este 0 925.7 -1.3 26
2020-03-28 14:00:00 15 5 Este 24 Este 0 926.2 -0.9 26
2020-03-28 13:00:00 13.2 6 Sudeste 19 Sudeste 0 926.6 -0.5 25
2020-03-28 12:00:00 11.9 8 Este 21 Este 0 927 0.2 25
2020-03-28 11:00:00 10.5 10 Este 20 Este 0 927.1 0.6 40
2020-03-28 10:00:00 6.7 5 Este 14 Sudeste 0 927.1 1 49
2020-03-28 09:00:00 3.1 9 Este 15 Este 0 926.8 1.2 58
2020-03-28 08:00:00 -0.1 4 Este 9 Este 0 926.5 1.2 71
2020-03-28 07:00:00 -2.2 6 Este 14 Este 0 926.1 0.9 75
2020-03-28 06:00:00 -2.1 8 Sudeste 12 Sudeste 0 925.6 0.5 74
2020-03-28 05:00:00 -1.4 5 Este 11 Este 0 925.3 0.3 70
2020-03-28 04:00:00 -1.5 8 Este 12 Sudeste 0 925.2 0.6 69
2020-03-28 03:00:00 -0.9 8 Sudeste 12 Sudeste 0 925.1 0.7 67
2020-03-28 02:00:00 -0.4 3 Este 9 Sudeste 0 925 0.9 65
2020-03-28 01:00:00 -0.3 4 Este 8 Este 0 924.6 1.1 65
2020-03-28 00:00:00 0.4 4 Este 8 Sudeste 0 924.4 1.5 65
2020-03-27 23:00:00 1.4 5 Este 7 Este 0 924.1 2.3 55
2020-03-27 22:00:00 2.5 5 Este 8 Este 0 923.5 2.3 53
2020-03-27 21:00:00 4.5 0 Calma 4 Sudeste 0 922.9 2.2 41
2020-03-27 20:00:00 8.3 2 Sudeste 21 Sudeste 0 921.8 1.3 26
2020-03-27 19:00:00 10.6 9 Sudeste 31 Este 0 921.2 0.7 18
2020-03-27 18:00:00 11.3 10 Este 37 Este 0 920.7 -0.2 19
2020-03-27 17:00:00 11.5 10 Este 33 Este 0 920.5 -0.8 22
2020-03-27 16:00:00 12 11 Sudeste 33 Sudeste 0 920.5 -1 23
2020-03-27 15:00:00 11.4 15 Este 35 Este 0 920.9 -0.9 26
2020-03-27 14:00:00 10.8 18 Este 41 Este 0 921.3 -0.7 29
2020-03-27 13:00:00 9.3 15 Este 43 Sudeste 0 921.5 -0.3 37
2020-03-27 12:00:00 7.8 18 Este 36 Sudeste 0 921.8 0.2 40
2020-03-27 11:00:00 6.2 19 Este 37 Este 0 922 0.6 45
2020-03-27 10:00:00 4.3 14 Este 39 Este 0 921.8 1 52
2020-03-27 09:00:00 1.9 10 Este 24 Este 0 921.6 0.8 56
2020-03-27 08:00:00 -1.7 2 Este 5 Este 0 921.4 1 71
2020-03-27 07:00:00 -3.1 5 Sudeste 8 Sudeste 0 920.8 0.4 72
2020-03-27 06:00:00 -2.4 4 Este 12 Este 0 920.8 0.2 71
2020-03-27 05:00:00 -1.6 6 Este 12 Sudeste 0 920.4 -0.5 66
2020-03-27 04:00:00 -2.1 2 Nordeste 6 Este 0 920.4 -0.5 74
2020-03-27 03:00:00 -1.2 0 Calma 5 Oeste 0 920.6 0 67
2020-03-27 02:00:00 1.4 2 Sudeste 24 Nordeste 0 920.9 0.5 57
2020-03-27 01:00:00 3 13 Norte 30 Norte 0 920.9 0.5 52
2020-03-27 00:00:00 4.4 11 Nordeste 27 Norte 0 920.6 0.3 49
2020-03-26 23:00:00 4.9 12 Norte 27 Nordeste 0 920.4 0.4 55
2020-03-26 22:00:00 5.6 7 Norte 22 Norte 0 920.4 0.8 56
2020-03-26 21:00:00 6.1 11 Norte 25 Norte 0 920.3 0.8 53
2020-03-26 20:00:00 6.8 12 Norte 30 Norte 0 920 0.6 46
2020-03-26 19:00:00 8.2 12 Norte 26 Nordeste 0 919.6 -0.1 45
2020-03-26 18:00:00 8.8 11 Norte 27 Norte 0 919.5 -0.6 39
2020-03-26 17:00:00 9.2 10 Norte 27 Nordeste 0 919.4 -0.9 37
2020-03-26 16:00:00 9.7 13 Norte 39 Nordeste 0 919.7 -1.1 41
2020-03-26 15:00:00 9.7 18 Norte 41 Norte 0 920.1 -1 39
2020-03-26 14:00:00 9.7 17 Norte 44 Norte 0 920.3 -0.8 38
2020-03-26 13:00:00 8.3 21 Norte 41 Noroeste 0 920.8 -0.5 44
2020-03-26 12:00:00 8 15 Norte 36 Noroeste 0 921.1 -0.4 44
2020-03-26 11:00:00 8.4 14 Norte 36 Norte 0 921.1 -0.5 48
2020-03-26 10:00:00 6.8 10 Noroeste 23 Norte 0 921.3 0.3 53
2020-03-26 09:00:00 4.1 6 Oeste 18 Oeste 0 921.5 0.3 60
2020-03-26 08:00:00 0.2 3 Oeste 9 Sudoeste 0 921.6 0.3 73
2020-03-26 07:00:00 -1.8 4 Sudoeste 12 Sudoeste 0 921 -0.5 75
2020-03-26 06:00:00 -0.6 4 Sudoeste 9 Este 0 921.2 -0.5 69
2020-03-26 05:00:00 1.4 4 Norte 18 Norte 0 921.3 -0.8 62
2020-03-26 04:00:00 1.7 4 Norte 11 Nordeste 0 921.5 -0.8 62
2020-03-26 03:00:00 1.8 3 Nordeste 10 Oeste 0 921.7 -0.6 56
2020-03-26 02:00:00 3.5 5 Norte 18 Noroeste 0 922.1 -0.3 44
2020-03-26 01:00:00 4.6 5 Norte 14 Noroeste 0 922.3 -0.1 41
2020-03-26 00:00:00 5.8 4 Nordeste 14 Nordeste 0 922.3 0.3 33
2020-03-25 23:00:00 5.1 6 Sudoeste 12 Este 0 922.4 0.6 39
2020-03-25 22:00:00 7.7 2 Sudeste 17 Norte 0 922.4 0.9 32
2020-03-25 21:00:00 10.2 4 Noroeste 32 Norte 0 922 0.5 26
2020-03-25 20:00:00 11.5 5 Noroeste 23 Noroeste 0 921.8 0.1 24
2020-03-25 19:00:00 13.7 11 Norte 31 Norte 0 921.5 -0.8 21
2020-03-25 18:00:00 14.7 17 Norte 33 Noroeste 0 921.5 -1.2 20
2020-03-25 17:00:00 15 9 Noroeste 30 Noroeste 0 921.7 -1.6 26
2020-03-25 16:00:00 15.1 14 Noroeste 29 Noroeste 0 922.3 -1.5 29
2020-03-25 15:00:00 15.1 14 Norte 33 Noroeste 0 922.7 -1.7 27
2020-03-25 14:00:00 15.3 8 Noroeste 29 Noroeste 0 923.3 -1.4 39
2020-03-25 13:00:00 14.3 9 Oeste 23 Oeste 0 923.8 -1.1 43
2020-03-25 12:00:00 12.6 5 Oeste 17 Sudoeste 0 924.4 -0.4 47
2020-03-25 11:00:00 10.2 5 Oeste 12 Noroeste 0 924.7 -0.1 56
2020-03-25 10:00:00 7.8 4 Oeste 10 Oeste 0 924.9 0.1 66
2020-03-25 09:00:00 4.6 3 Este 6 Este 0 924.8 -0.1 74
2020-03-25 08:00:00 0.7 0 Calma 5 Este 0 924.8 -0.1 85
2020-03-25 07:00:00 -1 3 Este 5 Este 0 924.8 -0.2 85
2020-03-25 06:00:00 -0.8 0 Calma 5 Sudoeste 0 924.9 -0.5 84
2020-03-25 05:00:00 0.1 0 Calma 5 Norte 0 924.9 -0.5 84
2020-03-25 04:00:00 0.8 2 Sudeste 7 Este 0 925 -0.5 83
2020-03-25 03:00:00 1.1 2 Sudeste 6 Este 0 925.4 -0.1 83
2020-03-25 02:00:00 1.5 3 Este 6 Este 0 925.4 -0.2 82
2020-03-25 01:00:00 1.7 0 Calma 4 Este 0 925.5 -0.1 78
2020-03-25 00:00:00 2.9 2 Sur 4 Oeste 0 925.5 0.2 76
2020-03-24 23:00:00 4.5 0 Calma 5 Este 0 925.6 0.6 74
2020-03-24 22:00:00 6.2 0 Calma 11 Este 0 925.6 0.9 68
2020-03-24 21:00:00 8.7 5 Este 14 Sudeste 0 925.3 0.8 58
2020-03-24 20:00:00 10.2 8 Sudeste 27 Este 0 925 0.6 52
2020-03-24 19:00:00 12.1 17 Este 31 Este 0 924.7 -0.1 44
2020-03-24 18:00:00 12.9 16 Este 36 Este 0 924.5 -0.7 43
2020-03-24 17:00:00 13.3 16 Este 36 Sudeste 0 924.4 -1.2 43
2020-03-24 16:00:00 13.5 19 Este 45 Sudeste 0 924.8 -1.2 41
2020-03-24 15:00:00 13.4 21 Este 41 Sudeste 0 925.2 -1.4 43
2020-03-24 14:00:00 13.6 21 Sudeste 38 Sudeste 0 925.6 -1.2 42
2020-03-24 13:00:00 13.1 19 Sudeste 40 Este 0 926 -0.8 44
2020-03-24 12:00:00 11.6 19 Este 42 Sudeste 0 926.6 -0.2 54
2020-03-24 11:00:00 11.1 21 Este 42 Este 0 926.8 0.3 59
2020-03-24 10:00:00 9.6 16 Este 35 Este 0 926.8 0.7 64
2020-03-24 09:00:00 9 14 Este 30 Este 0 926.8 0.6 69
2020-03-24 08:00:00 8.1 8 Este 20 Este 0 926.5 0.4 72
2020-03-24 07:00:00 7 8 Este 15 Nordeste 0 926.1 0 79
2020-03-24 06:00:00 5.4 2 Norte 8 Este 0 926.2 0 83
2020-03-24 05:00:00 5.6 4 Este 13 Este 0 926.1 0 81
2020-03-24 04:00:00 6.8 5 Este 17 Este 0 926.1 0 79
2020-03-24 03:00:00 7.1 7 Este 15 Este 0 926.2 -0.2 80
2020-03-24 02:00:00 7.2 6 Este 18 Este 0 926.1 0 79
2020-03-24 01:00:00 7.5 9 Este 19 Este 0 926.1 0.4 77
2020-03-24 00:00:00 7.3 5 Este 19 Este 0 926.4 1.1 75
2020-03-23 23:00:00 6.1 5 Este 9 Este 0 926.1 1.2 79
2020-03-23 22:00:00 7.4 4 Sudoeste 16 Sudeste 0 925.7 1.3 73
2020-03-23 21:00:00 9.2 7 Este 18 Sudeste 0 925.3 1.2 68
2020-03-23 20:00:00 10.5 8 Este 31 Este 0 924.9 1.1 61
2020-03-23 19:00:00 12.6 12 Este 38 Este 0 924.4 0.4 56
2020-03-23 18:00:00 12.8 23 Este 42 Sudeste 0 924.1 -0.2 47
2020-03-23 17:00:00 13.1 20 Este 36 Sudeste 0 923.8 -0.9 46
2020-03-23 16:00:00 13.7 15 Este 37 Este 0 924 -1.4 49
2020-03-23 15:00:00 13.6 19 Sudeste 40 Sudeste 0 924.3 -1.2 47
2020-03-23 14:00:00 13.7 14 Este 31 Este 0 924.7 -0.9 47
2020-03-23 13:00:00 12.7 15 Sudeste 39 Este 0 925.4 -0.2 50
2020-03-23 12:00:00 11.6 19 Este 37 Este 0 925.5 0.2 55
2020-03-23 11:00:00 10.3 18 Sudeste 34 Este 5 925.6 0.7 62
2020-03-23 10:00:00 8.5 3 Sudeste 12 Este 0 925.6 1.2 74
2020-03-23 09:00:00 6.5 0 Calma 5 Este 0 925.3 1.2 80
2020-03-23 08:00:00 2.7 2 Nordeste 6 Este 0 924.9 1.1 87
2020-03-23 07:00:00 1.7 3 Este 5 Este 0 924.4 0.9 87
2020-03-23 06:00:00 1.3 2 Este 5 Sur 0 924.1 0.5 87
2020-03-23 05:00:00 1.6 0 Calma 6 Norte 0 923.8 0 86
2020-03-23 04:00:00 2.2 3 Este 6 Este 0 923.5 -0.3 86
2020-03-23 03:00:00 2.5 2 Nordeste 5 Este 0 923.6 -0.1 86
2020-03-23 02:00:00 3 0 Calma 6 Sudeste 0 923.8 0.3 85
2020-03-23 01:00:00 3.4 2 Sudeste 6 Sudoeste 0 923.8 0.8 85
2020-03-23 00:00:00 4.3 0 Calma 4 Sudeste 0 923.7 1.2 84
2020-03-22 23:00:00 5.2 2 Sudoeste 5 Sudoeste 0 923.5 1.6 82
2020-03-22 22:00:00 7.3 2 Este 5 Este 0 923 2 82
2020-03-22 21:00:00 8.8 3 Sur 8 Nordeste 0 922.5 1.7 82
2020-03-22 20:00:00 9.2 0 Calma 8 Noroeste 0 921.9 1.8 82
2020-03-22 19:00:00 9.8 3 Oeste 18 Noroeste 0.8 921 0.9 79
2020-03-22 18:00:00 10.8 8 Norte 22 Nordeste 1 920.8 0.6 71
2020-03-22 17:00:00 12.2 12 Norte 22 Nordeste 0 920.1 -0.5 60
2020-03-22 16:00:00 11.9 7 Norte 35 Nordeste 0.2 920.1 -1 63
2020-03-22 15:00:00 14.6 7 Este 17 Este 0 920.2 -1.4 43
2020-03-22 14:00:00 13.9 9 Este 26 Sudeste 0 920.6 -1.1 52
2020-03-22 13:00:00 12.9 7 Este 22 Este 0 921.1 -0.4 59
2020-03-22 12:00:00 11 7 Sudeste 15 Sudeste 0 921.6 0.6 65
2020-03-22 11:00:00 9.6 3 Este 10 Sudeste 0 921.7 0.9 72
2020-03-22 10:00:00 8.6 6 Sudeste 10 Sudeste 0 921.5 1 77
2020-03-22 09:00:00 7.5 4 Sudeste 10 Sudeste 0 921 0.7 83
2020-03-22 08:00:00 7 0 Calma 5 Nordeste 0 920.8 0.7 85
2020-03-22 07:00:00 6.8 2 Nordeste 6 Nordeste 0 920.5 0.3 85
2020-03-22 06:00:00 6.4 2 Norte 5 Norte 0 920.3 -0.3 85
2020-03-22 05:00:00 6.5 0 Calma 5 Noroeste 0 920.1 -0.7 84
2020-03-22 04:00:00 6.9 3 Oeste 9 Oeste 0 920.2 -0.6 83
2020-03-22 03:00:00 7.3 3 Sudoeste 7 Oeste 0 920.6 -0.3 83
2020-03-22 02:00:00 7.5 0 Calma 11 Noroeste 0 920.8 -0.1 82
2020-03-22 01:00:00 7.7 4 Oeste 10 Noroeste 0 920.8 0.2 81
2020-03-22 00:00:00 8.2 3 Oeste 7 Oeste 0.2 920.9 0.7 81
2020-03-21 23:00:00 8.5 3 Noroeste 11 Oeste 0 920.9 1.2 77
2020-03-21 22:00:00 9 4 Oeste 8 Noroeste 0 920.6 1.3 80
2020-03-21 21:00:00 9.3 2 Oeste 8 Noroeste 0 920.2 1.5 79
2020-03-21 20:00:00 9.8 4 Noroeste 14 Oeste 0 919.7 1.2 77
2020-03-21 19:00:00 11.1 3 Sudoeste 13 Sudeste 0.2 919.3 0.6 72
2020-03-21 18:00:00 12.1 12 Este 27 Este 0 918.7 -0.4 61
2020-03-21 17:00:00 13 11 Este 28 Este 0 918.5 -0.9 52
2020-03-21 16:00:00 13.6 13 Este 32 Sudeste 0 918.7 -1.3 51
2020-03-21 15:00:00 13.9 16 Este 34 Sudeste 0 919.1 -1.1 51
2020-03-21 14:00:00 13.1 16 Este 36 Sudeste 0 919.4 -0.9 52
2020-03-21 13:00:00 13.4 14 Este 32 Este 0 920 -0.3 51
2020-03-21 12:00:00 13.3 17 Este 38 Este 0 920.2 -0.1 51
2020-03-21 11:00:00 12.3 18 Este 34 Este 0 920.3 -0.2 55
2020-03-21 10:00:00 11 17 Este 37 Este 0 920.3 -0.5 59
2020-03-21 09:00:00 8.7 9 Este 21 Este 0 920.3 -0.7 70
2020-03-21 08:00:00 6.6 11 Este 20 Este 0 920.5 -1 80
2020-03-21 07:00:00 6.3 6 Sudeste 18 Este 0 920.8 -1 79
2020-03-21 06:00:00 6.5 8 Este 18 Este 0 921 -1 80
2020-03-21 05:00:00 6 7 Este 15 Este 0 921.5 -0.8 84
2020-03-21 04:00:00 5.8 2 Sur 19 Este 0 921.8 -0.8 80
2020-03-21 03:00:00 7 9 Este 27 Sudeste 0 922 -1.1 78
2020-03-21 02:00:00 7.2 8 Este 29 Este 0 922.3 -1.1 76
2020-03-21 01:00:00 7.3 9 Este 24 Sudeste 0 922.6 -1.2 74
2020-03-21 00:00:00 7.2 9 Este 18 Sudeste 0 923.1 -0.4 75
2020-03-20 23:00:00 7.2 7 Sudeste 11 Sudeste 0 923.4 0.3 76
2020-03-20 22:00:00 8.5 5 Sudeste 16 Este 0 923.8 0.9 70
2020-03-20 21:00:00 9.4 8 Sudeste 20 Este 0 923.5 0.8 68
2020-03-20 20:00:00 11.1 9 Este 31 Este 0 923.1 0.3 62
2020-03-20 19:00:00 12.8 12 Este 30 Este 0 922.9 -0.1 55
2020-03-20 18:00:00 14.1 10 Sudeste 26 Este 0 922.7 -0.5 49
2020-03-20 17:00:00 15.3 8 Sudeste 23 Sur 0 922.8 -0.7 46
2020-03-20 16:00:00 15.4 13 Sur 26 Sur 0 923 -1 45
2020-03-20 15:00:00 15.3 9 Este 24 Este 0 923.2 -1.4 43
2020-03-20 14:00:00 15.2 9 Este 22 Sudeste 0 923.5 -1.3 49
2020-03-20 13:00:00 13.4 10 Este 23 Este 0 924 -0.6 54
2020-03-20 12:00:00 12.6 14 Este 30 Este 0 924.6 0.1 59
2020-03-20 11:00:00 11.2 13 Este 31 Este 0 924.8 0.5 65
2020-03-20 10:00:00 10.3 12 Este 32 Sudeste 0 924.6 0.5 68
2020-03-20 09:00:00 8.6 12 Este 21 Este 0 924.5 0.2 75
2020-03-20 08:00:00 6.3 5 Este 14 Este 0 924.3 -0.2 82
2020-03-20 07:00:00 6.7 8 Este 15 Este 0 924.1 -0.7 81
2020-03-20 06:00:00 7 8 Este 24 Este 0 924.3 -0.7 80
2020-03-20 05:00:00 7.5 12 Este 24 Este 0 924.5 -0.9 78
2020-03-20 04:00:00 7.9 12 Este 27 Este 0 924.8 -0.8 75
2020-03-20 03:00:00 8.2 10 Este 28 Sudeste 0 925 -1 72
2020-03-20 02:00:00 8 10 Este 27 Este 0 925.4 -0.5 70
2020-03-20 01:00:00 8.1 9 Este 22 Este 0 925.6 -0.3 68
2020-03-20 00:00:00 8.5 7 Este 18 Este 0 926 0.2 69
2020-03-19 23:00:00 9 8 Sudeste 18 Este 0 925.9 0.3 66
2020-03-19 22:00:00 9.8 7 Este 14 Este 0 925.9 0.5 61
2020-03-19 21:00:00 10.6 5 Sudeste 15 Este 0 925.8 0.3 58
2020-03-19 20:00:00 13.2 8 Sudeste 21 Este 0 925.6 -0.3 47
2020-03-19 19:00:00 14.6 11 Este 26 Este 0 925.4 -1.1 39
2020-03-19 18:00:00 15.6 10 Este 27 Este 0 925.5 -1.7 39
2020-03-19 17:00:00 16.4 12 Este 28 Sudeste 0 925.9 -2.1 36
2020-03-19 16:00:00 16 12 Este 28 Este 0 926.5 -2.1 32
2020-03-19 15:00:00 14.9 14 Este 39 Este 0 927.2 -2 35
2020-03-19 14:00:00 14.7 12 Este 42 Este 0 928 -1.7 39
2020-03-19 13:00:00 14.3 17 Sudeste 35 Sudeste 0 928.6 -1.3 39
2020-03-19 12:00:00 12.9 20 Este 40 Este 0 929.2 -0.6 46
2020-03-19 11:00:00 11.7 17 Este 42 Este 0 929.7 -0.1 61
2020-03-19 10:00:00 9 15 Este 36 Sudeste 0 929.9 0.3 76
2020-03-19 09:00:00 7.9 11 Este 26 Este 0 929.8 0.1 81
2020-03-19 08:00:00 7.2 8 Este 24 Este 0 929.8 -0.1 83
2020-03-19 07:00:00 7.4 12 Este 28 Este 0 929.6 -0.6 84
2020-03-19 06:00:00 7.5 9 Este 22 Este 0 929.7 -1.2 83
2020-03-19 05:00:00 7.8 9 Este 23 Este 0 929.9 -1.4 82
2020-03-19 04:00:00 8.5 10 Este 30 Este 0 930.2 -1.3 80
2020-03-19 03:00:00 8.6 9 Este 19 Este 0 930.9 -1 80
2020-03-19 02:00:00 9 8 Este 22 Este 0 931.3 -0.9 78
2020-03-19 01:00:00 9.3 6 Este 19 Este 0 931.5 -0.9 77
2020-03-19 00:00:00 9.7 10 Este 20 Este 0 931.9 -0.3 75
2020-03-18 23:00:00 9.6 4 Este 10 Este 0 932.2 0.2 75
2020-03-18 22:00:00 10.4 4 Este 10 Este 0 932.4 0.6 71
2020-03-18 21:00:00 11.6 5 Este 9 Este 0 932.2 0.8 66
2020-03-18 20:00:00 13.3 4 Este 27 Este 0 932 0.6 60
2020-03-18 19:00:00 15.3 11 Este 30 Sudeste 0 931.8 -0.1 53
2020-03-18 18:00:00 17.4 13 Sudeste 31 Este 0 931.4 -1 45
2020-03-18 17:00:00 18.2 15 Este 28 Sudeste 0 931.4 -1.7 38
2020-03-18 16:00:00 18.2 13 Este 26 Este 0 931.9 -1.9 43
2020-03-18 15:00:00 17.7 13 Este 32 Sudeste 0 932.4 -2 47
2020-03-18 14:00:00 16.6 16 Este 31 Este 0 933.1 -1.8 47
2020-03-18 13:00:00 15.1 15 Este 36 Este 0 933.8 -1.2 51
2020-03-18 12:00:00 13.2 15 Este 35 Este 0 934.4 -0.4 56
2020-03-18 11:00:00 11.3 17 Este 37 Este 0 934.9 0 63
2020-03-18 10:00:00 9.3 14 Este 35 Sudeste 0 935 0.1 73
2020-03-18 09:00:00 8.5 15 Este 30 Sudeste 0 934.8 -0.1 77
2020-03-18 08:00:00 8 12 Este 26 Este 0 934.9 0.1 78
2020-03-18 07:00:00 8 10 Este 21 Este 0 934.9 0.1 78
2020-03-18 06:00:00 8.1 8 Este 23 Este 0 934.9 -0.5 78
2020-03-18 05:00:00 8.3 11 Este 26 Este 0 934.8 -0.8 79
2020-03-18 04:00:00 8.5 13 Este 26 Sudeste 0 934.8 -1 78
2020-03-18 03:00:00 8.9 12 Este 27 Este 0 935.4 -0.7 76
2020-03-18 02:00:00 9.1 11 Este 31 Sudeste 0 935.6 -0.7 76
2020-03-18 01:00:00 9.4 13 Este 29 Este 0 935.8 -0.4 76
2020-03-18 00:00:00 9.7 13 Este 33 Este 0 936.1 0.4 76
2020-03-17 23:00:00 10.1 10 Este 26 Este 0 936.3 1.3 75
2020-03-17 22:00:00 10.8 13 Este 32 Este 0 936.2 2.1 73
2020-03-17 21:00:00 11.2 16 Este 36 Sudeste 0 935.7 2.2 71
2020-03-17 20:00:00 11.6 15 Este 32 Este 0 935 1.6 71
2020-03-17 19:00:00 12.8 17 Este 40 Sudeste 0 934.1 0.7 64
2020-03-17 18:00:00 13.4 17 Este 38 Sudeste 0 933.5 0.1 63
2020-03-17 17:00:00 12.7 17 Este 44 Este 0 933.4 -0.3 67
2020-03-17 16:00:00 12.4 21 Este 48 Este 0 933.4 -0.3 68
2020-03-17 15:00:00 12.7 19 Este 43 Sudeste 0 933.4 -0.4 66
2020-03-17 14:00:00 11.2 19 Este 39 Este 0 933.7 0.2 73
2020-03-17 13:00:00 10.3 19 Este 38 Sudeste 0 933.7 0.4 74
2020-03-17 12:00:00 9.8 11 Este 24 Este 0 933.8 1.3 77
2020-03-17 11:00:00 8.7 8 Nordeste 15 Este 0 933.5 1.8 84
2020-03-17 10:00:00 7.5 5 Nordeste 12 Este 0 933.3 1.8 84
2020-03-17 09:00:00 6.7 0 Calma 4 Este 0 932.5 2.1 84
2020-03-17 08:00:00 6.7 2 Nordeste 14 Nordeste 0.6 931.7 2.7 82
2020-03-17 07:00:00 6.8 6 Este 12 Nordeste 1 931.5 2.6 79
2020-03-17 06:00:00 7 0 Calma 12 Este 0 930.4 1.8 78
2020-03-17 05:00:00 7.3 5 Nordeste 22 Nordeste 0 929 0.8 72
2020-03-17 04:00:00 7.4 6 Nordeste 21 Nordeste 0 928.9 1 71
2020-03-17 03:00:00 6.4 5 Este 14 Este 0 928.6 0.9 81
2020-03-17 02:00:00 4.9 0 Calma 12 Sudoeste 0 928.2 1 86
2020-03-17 01:00:00 4.6 3 Oeste 6 Oeste 0 927.9 1.3 86
2020-03-17 00:00:00 4.6 2 Noroeste 4 Norte 0 927.7 1.5 86
2020-03-16 23:00:00 4.6 0 Calma 6 Sudeste 0 927.2 1.8 85
2020-03-16 22:00:00 4.5 3 Sur 10 Sudeste 0 926.6 1.9 85
2020-03-16 21:00:00 4.6 3 Este 15 Sudeste 1 926.2 1.4 84
2020-03-16 20:00:00 5 7 Este 14 Nordeste 0.8 925.4 1.3 83
2020-03-16 19:00:00 5.1 5 Este 13 Este 1.6 924.7 0.8 82
2020-03-16 18:00:00 5.3 5 Este 14 Sudeste 7.8 924.8 0.9 82
2020-03-16 17:00:00 6 5 Sudeste 17 Sudeste 0 924.1 0.8 77
2020-03-16 16:00:00 5.7 11 Este 30 Este 0.2 923.9 0.5 76
2020-03-16 15:00:00 6.2 17 Nordeste 36 Nordeste 0 923.9 0.7 66
2020-03-16 14:00:00 6.1 17 Nordeste 42 Norte 0 923.3 0.7 69
2020-03-16 13:00:00 5.1 16 Nordeste 44 Nordeste 0 923.4 1.7 73
2020-03-16 12:00:00 4.5 13 Nordeste 40 Nordeste 0 923.2 2.5 77
2020-03-16 11:00:00 4.3 15 Nordeste 39 Nordeste 0 922.6 1.7 74
2020-03-16 10:00:00 3.7 10 Este 32 Este 0 921.7 1.7 79
2020-03-16 09:00:00 2.5 9 Nordeste 19 Este 0 920.7 1.7 85
2020-03-16 08:00:00 0.8 2 Nordeste 17 Este 0 920.9 2.4 85
2020-03-16 07:00:00 2.9 5 Nordeste 13 Nordeste 0 920 1.2 83
2020-03-16 06:00:00 3.4 11 Sudoeste 22 Sudoeste 0 919 -0.4 81
2020-03-16 05:00:00 3.6 14 Sudoeste 31 Sudoeste 0 918.5 -0.7 78
2020-03-16 04:00:00 3.7 14 Sudoeste 31 Sudoeste 0 918.8 -0.2 78
2020-03-16 03:00:00 3.7 16 Sudoeste 33 Sudoeste 0 919.4 -0.3 77
2020-03-16 02:00:00 5 16 Sudoeste 31 Oeste 0 919.2 0 74
2020-03-16 01:00:00 7.9 9 Sudoeste 21 Oeste 0 919 -0.1 74
2020-03-16 00:00:00 9.3 5 Oeste 22 Noroeste 0 919.7 0.7 60
2020-03-15 23:00:00 10 4 Oeste 21 Oeste 0 919.2 0.4 57
2020-03-15 22:00:00 11.4 5 Oeste 21 Oeste 0 919.1 0.3 57
2020-03-15 21:00:00 12.1 8 Oeste 24 Oeste 0 919 0.3 55
2020-03-15 20:00:00 13.1 0 Calma 14 Noroeste 0 918.8 0.3 59
2020-03-15 19:00:00 14.6 6 Oeste 35 Oeste 0 918.8 -0.2 50
2020-03-15 18:00:00 12.3 14 Sudoeste 30 Sudoeste 0.2 918.7 -1.1 63
2020-03-15 17:00:00 15.4 17 Sur 43 Sur 0 918.5 -2.6 51
2020-03-15 16:00:00 20 12 Oeste 31 Oeste 0 919 -3.2 30
2020-03-15 15:00:00 20.7 14 Oeste 34 Sudoeste 0 919.8 -3.5 28
2020-03-15 14:00:00 20.1 17 Sudoeste 36 Oeste 0 921.1 -3 28
2020-03-15 13:00:00 19.1 15 Sudoeste 34 Sudoeste 0 922.2 -2.4 29
2020-03-15 12:00:00 14.5 3 Nordeste 11 Sudeste 0 923.3 -1.5 42
2020-03-15 11:00:00 12 5 Este 14 Sudeste 0 924.1 -0.8 47
2020-03-15 10:00:00 8.6 3 Sudeste 9 Sudeste 0 924.6 -0.4 55
2020-03-15 09:00:00 4.1 3 Sudeste 6 Sudeste 0 924.8 -0.3 69
2020-03-15 08:00:00 -1.3 0 Calma 4 Sur 0 924.9 -0.6 81
2020-03-15 07:00:00 -1.6 2 Sudoeste 8 Sudeste 0 925 -1.1 82
2020-03-15 06:00:00 -1.3 3 Sudeste 10 Sudeste 0 925.1 -1.8 80
2020-03-15 05:00:00 -1.1 3 Este 6 Este 0 925.5 -1.9 80
2020-03-15 04:00:00 -0.5 3 Sudeste 8 Sudeste 0 926.1 -1.6 78
2020-03-15 03:00:00 0.5 5 Este 8 Sudeste 0 926.9 -1.1 74
2020-03-15 02:00:00 1.1 5 Este 8 Este 0 927.4 -0.6 76
2020-03-15 01:00:00 1.6 4 Este 7 Sudeste 0 927.7 -0.3 74
2020-03-15 00:00:00 2.5 4 Este 5 Este 0 928 -0.1 69
2020-03-14 23:00:00 3.8 2 Este 3 Este 0 928 0.2 64
2020-03-14 22:00:00 5.2 2 Este 4 Este 0 928 0.4 57
2020-03-14 21:00:00 7.9 0 Calma 4 Noroeste 0 928.1 0.6 49
2020-03-14 20:00:00 12.5 0 Calma 10 Noroeste 0 927.8 0.1 36
2020-03-14 19:00:00 15.3 6 Noroeste 15 Noroeste 0 927.6 -0.5 23
2020-03-14 18:00:00 16.4 7 Noroeste 15 Norte 0 927.5 -1.4 21
2020-03-14 17:00:00 16.5 5 Noroeste 15 Noroeste 0 927.7 -2.1 22
2020-03-14 16:00:00 16.2 6 Noroeste 15 Norte 0 928.1 -2.4 30
2020-03-14 15:00:00 14.9 4 Norte 17 Norte 0 928.9 -2.2 34
2020-03-14 14:00:00 14 4 Noroeste 13 Sudoeste 0 929.8 -1.7 46
2020-03-14 13:00:00 9.8 4 Norte 12 Noroeste 0 930.5 -0.9 66
2020-03-14 12:00:00 6.9 6 Norte 11 Norte 0 931.1 0.1 74
2020-03-14 11:00:00 5 2 Sur 6 Sur 0 931.5 1 80
2020-03-14 10:00:00 1.8 0 Calma 6 Norte 0 931.4 1.3 86
2020-03-14 09:00:00 0.3 0 Calma 5 Norte 0 931 1.3 86
2020-03-14 08:00:00 -1.6 0 Calma 4 Sudoeste 0 930.5 1 84
2020-03-14 07:00:00 -1.4 0 Calma 5 Sudoeste 0 930.1 0.7 84
2020-03-14 06:00:00 -0.5 0 Calma 5 Sur 0 929.7 0.1 85
2020-03-14 05:00:00 0 0 Calma 4 Sudoeste 0 929.5 -0.2 83
2020-03-14 04:00:00 0.8 3 Sudoeste 8 Noroeste 0 929.4 -0.5 83
2020-03-14 03:00:00 1.5 2 Oeste 8 Sur 0 929.6 -0.1 83
2020-03-14 02:00:00 2.5 3 Sur 6 Sur 0 929.7 0.1 81
2020-03-14 01:00:00 3.7 3 Sudoeste 9 Sur 0 929.9 1.1 80
2020-03-14 00:00:00 4.8 4 Sudoeste 9 Oeste 0 929.7 1.3 79
2020-03-13 23:00:00 5.6 5 Oeste 9 Oeste 0 929.6 1.5 76
2020-03-13 22:00:00 6.8 4 Sudoeste 10 Oeste 0 928.8 1.1 74
2020-03-13 21:00:00 8.1 4 Sudoeste 9 Oeste 0 928.4 1.4 70
2020-03-13 20:00:00 9.2 3 Oeste 19 Noroeste 0 928.1 1.3 66
2020-03-13 19:00:00 10.4 10 Noroeste 29 Noroeste 0 927.7 1.1 63
2020-03-13 18:00:00 12.7 12 Norte 26 Noroeste 0 927 0.1 57
2020-03-13 17:00:00 15.4 13 Norte 25 Noroeste 0 926.8 -0.8 51
2020-03-13 16:00:00 17.3 11 Noroeste 25 Noroeste 0 926.6 -1.6 47
2020-03-13 15:00:00 17.2 5 Norte 15 Noroeste 0 926.9 -1.5 48
2020-03-13 14:00:00 16.9 5 Sudeste 14 Nordeste 0 927.6 -0.9 47
2020-03-13 13:00:00 15.5 5 Este 16 Este 0 928.2 -0.7 52
2020-03-13 12:00:00 14 6 Nordeste 21 Norte 0 928.4 -0.3 57
2020-03-13 11:00:00 12.8 7 Nordeste 20 Este 0 928.5 -0.1 63
2020-03-13 10:00:00 11.7 4 Sudeste 12 Sudeste 0 928.9 0.7 64
2020-03-13 09:00:00 8.3 0 Calma 5 Sudoeste 0 928.7 0.9 76
2020-03-13 08:00:00 4.7 2 Sudoeste 6 Este 0 928.6 1 80
2020-03-13 07:00:00 5.7 0 Calma 6 Oeste 0 928.2 0.5 82
2020-03-13 06:00:00 7 0 Calma 7 Nordeste 0 927.8 -0.1 79
2020-03-13 05:00:00 7.6 0 Calma 5 Sudoeste 0 927.6 -0.6 80
2020-03-13 04:00:00 8.1 0 Calma 7 Sudoeste 0 927.7 -0.9 77
2020-03-13 03:00:00 8.9 3 Oeste 11 Sudoeste 0 927.9 -0.8 76
2020-03-13 02:00:00 9.1 3 Oeste 9 Sudoeste 0 928.2 -0.4 75
2020-03-13 01:00:00 9.4 5 Sudoeste 10 Noroeste 0 928.6 0.4 73
2020-03-13 00:00:00 10.1 3 Oeste 12 Oeste 0 928.7 0.9 72
2020-03-12 23:00:00 10.8 6 Oeste 18 Oeste 0 928.6 1.2 70
2020-03-12 22:00:00 11.7 6 Oeste 17 Oeste 0 928.2 1.4 68
2020-03-12 21:00:00 12.7 6 Oeste 17 Noroeste 0 927.8 1.3 65
2020-03-12 20:00:00 14.8 7 Noroeste 18 Noroeste 0 927.4 1.2 58
2020-03-12 19:00:00 17.3 3 Noroeste 21 Norte 0 926.8 0.4 51
2020-03-12 18:00:00 19.3 13 Norte 28 Noroeste 0 926.5 -0.5 47
2020-03-12 17:00:00 22.1 12 Noroeste 28 Noroeste 0 926.2 -2 28
2020-03-12 16:00:00 23.4 8 Noroeste 26 Norte 0 926.4 -2.6 29
2020-03-12 15:00:00 23.3 8 Noroeste 21 Noroeste 0 927 -2.6 26
2020-03-12 14:00:00 23.2 7 Oeste 15 Noroeste 0 928.2 -1.6 30
2020-03-12 13:00:00 20 2 Nordeste 6 Sudoeste 0 929 -0.9 42
2020-03-12 12:00:00 17.2 0 Calma 9 Sudeste 0 929.6 -0.2 51
2020-03-12 11:00:00 15.5 3 Sudeste 17 Sudeste 0 929.8 0.1 53
2020-03-12 10:00:00 11.3 6 Este 13 Este 0 929.9 0.2 68
2020-03-12 09:00:00 7.2 7 Sudeste 13 Este 0 929.8 0.2 78
2020-03-12 08:00:00 6.4 7 Sudeste 14 Este 0 929.7 0 79
2020-03-12 07:00:00 6.4 4 Sudeste 8 Sudeste 0 929.7 -0.7 79
2020-03-12 06:00:00 6.5 5 Sudeste 10 Sudeste 0 929.6 -1.2 78
2020-03-12 05:00:00 7.3 5 Este 10 Sudeste 0 929.7 -1.5 77
2020-03-12 04:00:00 7.6 4 Este 9 Sudeste 0 930.4 -1.1 76
2020-03-12 03:00:00 8.3 5 Sudeste 9 Sudeste 0 930.8 -0.9 75
2020-03-12 02:00:00 8.8 4 Este 11 Sudeste 0 931.2 -0.7 73
2020-03-12 01:00:00 10.1 7 Este 12 Este 0 931.5 -0.1 68
2020-03-12 00:00:00 10.8 4 Este 10 Sudeste 0 931.7 0.2 68
2020-03-11 23:00:00 11.7 5 Este 10 Sudeste 0 931.9 0.2 66
2020-03-11 22:00:00 12.2 2 Este 6 Sudeste 0 931.6 0.2 64
2020-03-11 21:00:00 13.7 2 Norte 6 Sudeste 0 931.5 0.2 57
2020-03-11 20:00:00 16.5 0 Calma 4 Sudoeste 0 931.7 0.4 46
2020-03-11 19:00:00 20 0 Calma 13 Oeste 0 931.4 0 38
2020-03-11 18:00:00 21.7 3 Oeste 14 Oeste 0 931.3 -0.6 30
2020-03-11 17:00:00 22.9 5 Oeste 19 Oeste 0 931.3 -1.4 27
2020-03-11 16:00:00 23.4 11 Sudoeste 25 Sudoeste 0 931.4 -2 26
2020-03-11 15:00:00 23 8 Oeste 20 Oeste 0 931.9 -2.1 28
2020-03-11 14:00:00 22.4 6 Sudoeste 21 Sudoeste 0 932.7 -1.7 27
2020-03-11 13:00:00 19.9 7 Sudoeste 18 Sudoeste 0 933.4 -1 37
2020-03-11 12:00:00 15.9 3 Este 8 Este 0 934 -0.2 49
2020-03-11 11:00:00 12.7 4 Este 11 Sudeste 0 934.4 0.3 58
2020-03-11 10:00:00 8.8 4 Este 11 Sudeste 0 934.4 0.5 69
2020-03-11 09:00:00 6.5 7 Este 12 Este 0 934.2 0.4 69
2020-03-11 08:00:00 1.9 5 Este 12 Sudeste 0 934.1 0.3 86
2020-03-11 07:00:00 1.8 5 Este 10 Este 0 933.9 -0.1 86
2020-03-11 06:00:00 2.3 6 Este 10 Sudeste 0 933.8 -0.5 86
2020-03-11 05:00:00 2.6 4 Este 8 Este 0 933.8 -0.9 85
2020-03-11 04:00:00 3.4 4 Este 9 Este 0 934 -0.8 84
2020-03-11 03:00:00 4.2 5 Este 9 Sudeste 0 934.3 -0.4 84
2020-03-11 02:00:00 4.4 4 Este 8 Este 0 934.7 0.1 82
2020-03-11 01:00:00 4.5 3 Este 8 Este 0 934.8 0.2 82
2020-03-11 00:00:00 5.5 2 Este 5 Este 0 934.7 0.4 80
2020-03-10 23:00:00 6.8 2 Este 5 Este 0 934.6 0.7 78
2020-03-10 22:00:00 8.2 0 Calma 6 Este 0 934.6 1 72
2020-03-10 21:00:00 10.8 4 Este 6 Este 0 934.3 0.8 67
2020-03-10 20:00:00 14 0 Calma 7 Noroeste 0 933.9 0.3 56
2020-03-10 19:00:00 18.5 5 Noroeste 19 Oeste 0 933.6 -0.4 41
2020-03-10 18:00:00 20.6 7 Oeste 20 Oeste 0 933.5 -1 32
2020-03-10 17:00:00 20.4 10 Oeste 27 Sudoeste 0 933.6 -1.6 31
2020-03-10 16:00:00 20.7 13 Sudoeste 23 Sudoeste 0 934 -1.9 31
2020-03-10 15:00:00 20.1 9 Oeste 21 Oeste 0 934.5 -1.6 30
2020-03-10 14:00:00 19.4 8 Sudoeste 20 Sudoeste 0 935.2 -1.3 31
2020-03-10 13:00:00 16.6 3 Sudoeste 9 Sudoeste 0 935.9 -0.9 40
2020-03-10 12:00:00 13 3 Este 8 Este 0 936.1 -0.3 50
2020-03-10 11:00:00 11.5 2 Sur 6 Este 0 936.5 0.5 53
2020-03-10 10:00:00 7.2 4 Sudeste 8 Este 0 936.8 1.1 66
2020-03-10 09:00:00 3.7 3 Este 9 Este 0 936.4 0.8 76
2020-03-10 08:00:00 1.3 3 Este 8 Este 0 936 0.8 83
2020-03-10 07:00:00 1.2 2 Este 8 Este 0 935.7 0.6 82
2020-03-10 06:00:00 1.3 4 Este 7 Este 0 935.6 0 83
2020-03-10 05:00:00 1 2 Este 4 Este 0 935.2 0 84
2020-03-10 04:00:00 0.6 0 Calma 4 Sudeste 0 935.1 -0.6 82
2020-03-10 03:00:00 0.8 2 Sudeste 4 Sudoeste 0 935.6 -0.3 81
2020-03-10 02:00:00 0.9 0 Calma 3 Este 0 935.2 -1 82
2020-03-10 01:00:00 1.2 0 Calma 3 Este 0 935.7 -0.1 79
2020-03-10 00:00:00 1.8 0 Calma 4 Sudoeste 0 935.9 0.6 76
2020-03-09 23:00:00 2.6 0 Calma 4 Sudoeste 0 936.2 1.2 74
2020-03-09 22:00:00 3.7 2 Sur 4 Sudoeste 0 935.8 1.2 69
2020-03-09 21:00:00 5.7 0 Calma 4 Sudoeste 0 935.3 0.9 65
2020-03-09 20:00:00 8.5 2 Sudoeste 6 Noroeste 0 935 0.8 54
2020-03-09 19:00:00 11.2 4 Noroeste 21 Noroeste 0 934.6 0.1 43
2020-03-09 18:00:00 12.2 9 Norte 24 Noroeste 0 934.4 -0.3 38
2020-03-09 17:00:00 13.2 8 Oeste 25 Oeste 0 934.2 -1.3 37
2020-03-09 16:00:00 13.7 10 Oeste 28 Noroeste 0 934.5 -1.6 35
2020-03-09 15:00:00 13.1 8 Oeste 30 Oeste 0 934.7 -1.7 39
2020-03-09 14:00:00 14 10 Oeste 27 Noroeste 0 935.5 -1 39
2020-03-09 13:00:00 11.6 9 Oeste 26 Noroeste 0 936.1 -0.2 48
2020-03-09 12:00:00 10 9 Oeste 21 Oeste 0 936.4 1 53
2020-03-09 11:00:00 9.8 8 Oeste 21 Oeste 0 936.5 1.5 56
2020-03-09 10:00:00 7.9 8 Sudoeste 19 Oeste 0 936.3 1.3 66
2020-03-09 09:00:00 4.7 7 Sudoeste 15 Oeste 0 935.4 1.3 78
2020-03-09 08:00:00 2.4 4 Oeste 9 Oeste 0 935 0.9 84
2020-03-09 07:00:00 3 3 Oeste 15 Oeste 0 935 0.9 82
2020-03-09 06:00:00 3.9 7 Sudoeste 18 Sudoeste 0 934.1 0.1 83
2020-03-09 05:00:00 4.5 8 Sudoeste 16 Sudoeste 0 934.1 0 84
2020-03-09 04:00:00 4.6 5 Oeste 17 Oeste 0 934.1 0.2 84
2020-03-09 03:00:00 5.3 6 Oeste 20 Oeste 0 934 0.5 84
2020-03-09 02:00:00 6.2 8 Oeste 19 Oeste 0 934.1 0.3 83
2020-03-09 01:00:00 6.8 7 Oeste 20 Oeste 0 933.9 0.9 81
2020-03-09 00:00:00 7.9 10 Oeste 21 Sudoeste 0 933.5 0.6 77
2020-03-08 23:00:00 8.7 5 Oeste 27 Oeste 0 933.8 1.4 74
2020-03-08 22:00:00 8.6 9 Sudoeste 20 Oeste 0 933 0.6 74
2020-03-08 21:00:00 7.7 4 Oeste 17 Oeste 0 932.9 0.9 75
2020-03-08 20:00:00 9.4 5 Sudoeste 24 Sudoeste 0 932.4 0.2 64
2020-03-08 19:00:00 11.7 10 Sudoeste 26 Oeste 0 932.4 0 52
2020-03-08 18:00:00 12.8 13 Sudoeste 30 Sudoeste 0 932 -0.5 43
2020-03-08 17:00:00 13.8 11 Sudoeste 29 Sudoeste 0 932.2 -1 39
2020-03-08 16:00:00 13.5 13 Sudoeste 30 Oeste 0 932.4 -1.4 43
2020-03-08 15:00:00 13.4 11 Oeste 29 Oeste 0 932.5 -1.7 41
2020-03-08 14:00:00 14.2 13 Oeste 32 Sudoeste 0 933.2 -1.3 41
2020-03-08 13:00:00 13.2 12 Oeste 28 Oeste 0 933.8 -0.8 49
2020-03-08 12:00:00 11.5 10 Sudoeste 18 Oeste 0 934.2 0 56
2020-03-08 11:00:00 8 4 Nordeste 8 Este 0 934.5 0.7 66
2020-03-08 10:00:00 5.5 4 Este 10 Este 0 934.6 1.3 67
2020-03-08 09:00:00 2.5 4 Este 10 Este 0 934.2 0.8 72
2020-03-08 08:00:00 -2.4 4 Sudeste 6 Sudeste 0 933.8 0.7 86
2020-03-08 07:00:00 -1.9 3 Este 10 Sudeste 0 933.3 -0.3 87
2020-03-08 06:00:00 -1.6 3 Este 10 Este 0 933.4 -0.4 86
2020-03-08 05:00:00 -1.1 6 Este 12 Este 0 933.1 -0.6 86
2020-03-08 04:00:00 -0.9 5 Este 8 Sudeste 0 933.6 -0.6 86
2020-03-08 03:00:00 -0.4 4 Este 8 Sudeste 0 933.8 -0.8 86
2020-03-08 02:00:00 -0.1 4 Este 7 Este 0 933.7 -1.3 85
2020-03-08 01:00:00 0.1 2 Este 5 Este 0 934.2 -0.3 84
2020-03-08 00:00:00 1.2 3 Este 5 Este 0 934.6 0.3 82
2020-03-07 23:00:00 2 4 Este 5 Sudeste 0 935 0.8 80
2020-03-07 22:00:00 3.2 2 Norte 6 Sudoeste 0 934.5 0.7 77
2020-03-07 21:00:00 5.2 3 Sudoeste 9 Sudoeste 0 934.3 0.6 69
2020-03-07 20:00:00 7.7 5 Sudoeste 9 Oeste 0 934.2 0.2 61
2020-03-07 19:00:00 10.9 4 Oeste 18 Oeste 0 933.8 -0.4 49
2020-03-07 18:00:00 11.9 6 Noroeste 20 Norte 0 933.7 -0.7 46
2020-03-07 17:00:00 12.8 7 Oeste 24 Oeste 0 934 -0.8 44
2020-03-07 16:00:00 12.1 10 Sudoeste 22 Oeste 0 934.2 -1.4 46
2020-03-07 15:00:00 12.8 8 Oeste 22 Sudoeste 0 934.4 -1.4 44
2020-03-07 14:00:00 11.9 8 Noroeste 24 Noroeste 0 934.8 -0.9 45
2020-03-07 13:00:00 11 4 Oeste 15 Sudoeste 0 935.6 0.3 52
2020-03-07 12:00:00 9.4 8 Oeste 22 Oeste 0 935.8 0.8 54
2020-03-07 11:00:00 8.3 8 Oeste 22 Oeste 0 935.7 1.5 54
2020-03-07 10:00:00 6.6 9 Sudoeste 19 Oeste 0 935.3 1.4 60
2020-03-07 09:00:00 3.3 8 Oeste 21 Oeste 0 935 1.8 69
2020-03-07 08:00:00 2.3 5 Oeste 14 Oeste 0 934.2 1.2 71
2020-03-07 07:00:00 1.3 3 Oeste 9 Oeste 0 933.9 0.8 74
2020-03-07 06:00:00 1.4 7 Oeste 14 Oeste 0 933.2 -0.2 72
2020-03-07 05:00:00 1.2 5 Oeste 10 Oeste 0 933 -0.3 73
2020-03-07 04:00:00 1.3 3 Sudoeste 13 Oeste 0 933.1 -0.4 73
2020-03-07 03:00:00 0.9 3 Oeste 6 Oeste 0 933.4 0.4 76
2020-03-07 02:00:00 0.8 5 Oeste 10 Oeste 0 933.3 0.5 77
2020-03-07 01:00:00 -0.6 5 Oeste 9 Oeste 0 933.5 0.9 83
2020-03-07 00:00:00 -0.8 2 Oeste 7 Sudoeste 0 933 1.5 78
2020-03-06 23:00:00 0.7 2 Sudoeste 8 Sudoeste 0 932.8 2.4 73
2020-03-06 22:00:00 2.9 3 Oeste 14 Nordeste 0 932.6 3.2 68
2020-03-06 21:00:00 4.9 9 Norte 18 Norte 0 931.5 3 59
2020-03-06 20:00:00 6.7 8 Norte 23 Noroeste 0 930.4 2.6 49
2020-03-06 19:00:00 7.3 8 Noroeste 51 Noroeste 0 929.4 2.3 42
2020-03-06 18:00:00 8.4 18 Noroeste 45 Noroeste 0 928.5 1.3 35
2020-03-06 17:00:00 8.4 20 Noroeste 46 Noroeste 0 927.8 0.6 33
2020-03-06 16:00:00 8.6 18 Noroeste 53 Noroeste 0 927.1 -0.3 36
2020-03-06 15:00:00 9.4 19 Noroeste 51 Noroeste 0 927.2 0.8 35
2020-03-06 14:00:00 8.5 21 Noroeste 52 Noroeste 0 927.2 1.2 39
2020-03-06 13:00:00 6.3 19 Noroeste 55 Noroeste 0 927.4 2.4 55
2020-03-06 12:00:00 7.7 17 Oeste 61 Oeste 0 926.4 2.2 50
2020-03-06 11:00:00 6.1 23 Oeste 53 Oeste 0 926 2.5 59
2020-03-06 10:00:00 5.7 19 Oeste 51 Oeste 0 925 2.2 63
2020-03-06 09:00:00 4.9 21 Oeste 51 Oeste 0 924.2 2 68
2020-03-06 08:00:00 4 20 Oeste 59 Oeste 0 923.5 1.6 70
2020-03-06 07:00:00 4.1 16 Oeste 44 Oeste 0 922.8 0.3 76
2020-03-06 06:00:00 4.5 17 Oeste 42 Oeste 0 922.2 -1 76
2020-03-06 05:00:00 4.9 20 Oeste 46 Oeste 0 921.9 -1.8 77
2020-03-06 04:00:00 4.4 15 Oeste 38 Sudoeste 0 922.5 -1.3 80
2020-03-06 03:00:00 4.4 20 Sudoeste 44 Sudoeste 0 923.2 -1 75
2020-03-06 02:00:00 4.1 14 Oeste 32 Oeste 0 923.7 -0.2 76
2020-03-06 01:00:00 4.4 8 Oeste 30 Oeste 0 923.8 0.3 71
2020-03-06 00:00:00 5 12 Oeste 31 Oeste 0 924.2 1.4 64
2020-03-05 23:00:00 5.6 10 Oeste 23 Oeste 0 923.9 1.6 66
2020-03-05 22:00:00 6.3 8 Oeste 27 Oeste 0 923.5 2.1 63
2020-03-05 21:00:00 7.2 6 Oeste 19 Oeste 0 922.8 1.9 64
2020-03-05 20:00:00 8.2 8 Oeste 35 Oeste 0 922.3 1.4 64
2020-03-05 19:00:00 9.5 16 Oeste 45 Oeste 0 921.4 0.7 63
2020-03-05 18:00:00 10.1 17 Oeste 47 Oeste 0 920.9 0.5 64
2020-03-05 17:00:00 10.7 17 Oeste 48 Oeste 0 920.9 0.2 58
2020-03-05 16:00:00 11.7 22 Oeste 58 Oeste 0 920.7 -0.5 50
2020-03-05 15:00:00 13 23 Oeste 65 Oeste 0 920.4 -0.1 47
2020-03-05 14:00:00 12 23 Oeste 65 Oeste 0 920.7 0.2 49
2020-03-05 13:00:00 10.9 26 Oeste 67 Oeste 0 921.2 2.7 54
2020-03-05 12:00:00 9.8 26 Oeste 59 Oeste 0 920.5 1.8 59
2020-03-05 11:00:00 8.4 22 Oeste 63 Oeste 0 920.5 1 67
2020-03-05 10:00:00 10 25 Sudoeste 45 Sudoeste 0 918.5 -1.3 80
2020-03-05 09:00:00 10.6 22 Sudoeste 44 Sudoeste 0 918.7 -2.1 71
2020-03-05 08:00:00 10.4 19 Sudoeste 39 Sudoeste 0 919.5 -1.6 72
2020-03-05 07:00:00 10.7 20 Sudoeste 40 Sudoeste 0 919.8 -2.4 72
2020-03-05 06:00:00 10.4 16 Sudoeste 36 Oeste 0 920.8 -3 75
2020-03-05 05:00:00 10.6 15 Sudoeste 27 Sudoeste 0 921.1 -3.8 74
2020-03-05 04:00:00 10.7 15 Sudoeste 32 Sudoeste 0 922.2 -3.4 75
2020-03-05 03:00:00 10.7 18 Sudoeste 40 Sudoeste 0 923.8 -2.6 75
2020-03-05 02:00:00 10.6 16 Sudoeste 35 Sudoeste 0 924.9 -2 76
2020-03-05 01:00:00 10.7 14 Sudoeste 36 Sudoeste 0.2 925.6 -1.6 75
2020-03-05 00:00:00 10.8 15 Sudoeste 32 Sudoeste 0 926.4 -0.8 73
2020-03-04 23:00:00 10.4 14 Sudoeste 31 Sudoeste 0 926.9 -0.7 73
2020-03-04 22:00:00 10.7 11 Sudoeste 27 Sudoeste 0 927.2 -0.2 72
2020-03-04 21:00:00 11.3 12 Sudoeste 23 Sudoeste 0 927.2 -0.4 70
2020-03-04 20:00:00 12.1 10 Sudoeste 24 Sudoeste 0 927.6 -0.2 68
2020-03-04 19:00:00 12.5 12 Sudoeste 28 Sudoeste 0 927.4 -0.9 66
2020-03-04 18:00:00 13 13 Sudoeste 32 Sudoeste 0 927.6 -1.1 64
2020-03-04 17:00:00 13.5 17 Sudoeste 42 Sudoeste 0 927.8 -1.7 59
2020-03-04 16:00:00 14 15 Sudoeste 38 Oeste 0 928.3 -1.5 60
2020-03-04 15:00:00 13.2 16 Sudoeste 34 Oeste 0 928.7 -1.1 62
2020-03-04 14:00:00 12.7 12 Oeste 35 Oeste 0 929.5 -0.4 65
2020-03-04 13:00:00 12.7 15 Oeste 35 Oeste 0 929.8 0.2 65
2020-03-04 12:00:00 12 13 Oeste 39 Oeste 0 929.8 0.5 68
2020-03-04 11:00:00 11.3 15 Oeste 37 Oeste 0 929.9 1.1 72
2020-03-04 10:00:00 10.9 15 Sudoeste 37 Oeste 0 929.6 1.5 76
2020-03-04 09:00:00 10.6 12 Oeste 29 Oeste 0 929.3 1.2 77
2020-03-04 08:00:00 10.6 12 Oeste 36 Oeste 0 928.8 1 79
2020-03-04 07:00:00 10.7 14 Oeste 36 Oeste 0 928.1 0.1 80
2020-03-04 06:00:00 10.9 12 Oeste 39 Oeste 0 928.1 -0.3 81
2020-03-04 05:00:00 10.9 14 Oeste 36 Oeste 0 927.8 -0.6 82
2020-03-04 04:00:00 10.9 10 Oeste 29 Oeste 0 928 -0.3 84
2020-03-04 03:00:00 10.4 7 Oeste 18 Oeste 0 928.4 0.2 85
2020-03-04 02:00:00 10.6 10 Oeste 25 Oeste 0 928.4 0.6 82
2020-03-04 01:00:00 10.7 11 Oeste 30 Oeste 0 928.3 1.3 75
2020-03-04 00:00:00 10.4 7 Sudoeste 40 Oeste 0 928.2 2 63
2020-03-03 23:00:00 11 14 Oeste 36 Oeste 0 927.8 1.9 48
2020-03-03 22:00:00 11.7 9 Oeste 33 Oeste 0 927 2.3 55
2020-03-03 21:00:00 12.1 13 Oeste 28 Oeste 0 926.2 3 55
2020-03-03 20:00:00 12.8 10 Oeste 30 Oeste 0 925.9 3.3 54
2020-03-03 19:00:00 14.3 12 Oeste 44 Oeste 0 924.7 2.6 46
2020-03-03 18:00:00 15.7 16 Oeste 58 Oeste 0 923.2 1.1 54
2020-03-03 17:00:00 16.2 21 Oeste 62 Oeste 0 922.6 -0.1 53
2020-03-03 16:00:00 15.6 26 Oeste 58 Oeste 0.2 922.1 -1 58
2020-03-03 15:00:00 13.5 23 Oeste 56 Oeste 0 922.1 -1.2 71
2020-03-03 14:00:00 10.8 21 Sudoeste 55 Oeste 0 922.7 -0.5 79
2020-03-03 13:00:00 9.3 22 Oeste 51 Oeste 0 923.1 0.1 83
2020-03-03 12:00:00 8 18 Sudoeste 42 Oeste 0 923.3 0.5 85
2020-03-03 11:00:00 6.9 19 Sudoeste 43 Sudoeste 0 923.2 0.5 85
2020-03-03 10:00:00 6 18 Sudoeste 41 Oeste 0 923 -0.3 86
2020-03-03 09:00:00 5.4 21 Sudoeste 50 Sudoeste 0 922.8 -0.8 85
2020-03-03 08:00:00 5 20 Sudoeste 39 Sudoeste 0 922.7 -1.4 83
2020-03-03 07:00:00 4.4 15 Sudoeste 36 Sudoeste 0 923.3 -1.5 83
2020-03-03 06:00:00 4.2 17 Sudoeste 39 Sudoeste 0 923.6 -2.1 81
2020-03-03 05:00:00 4.7 18 Sudoeste 40 Sudoeste 0 924.1 -2.2 73
2020-03-03 04:00:00 4.7 19 Sudoeste 42 Sudoeste 0 924.8 -1.7 70
2020-03-03 03:00:00 4.3 16 Sudoeste 34 Sudoeste 0 925.7 -0.9 71
2020-03-03 02:00:00 4 14 Sudoeste 35 Sudoeste 0 926.3 0.1 70
2020-03-03 01:00:00 4.2 14 Sudoeste 31 Sudoeste 0 926.5 1 69
2020-03-03 00:00:00 4.1 12 Sudoeste 31 Sudoeste 0 926.6 1.7 67
2020-03-02 23:00:00 4.4 13 Sudoeste 28 Sudoeste 0 926.2 1.9 64
2020-03-02 22:00:00 4.2 9 Oeste 27 Oeste 0 925.5 2.1 62
2020-03-02 21:00:00 4.6 9 Oeste 20 Oeste 0 924.9 3.4 59
2020-03-02 20:00:00 4.9 6 Oeste 32 Oeste 0 924.3 3.7 55
2020-03-02 19:00:00 6.2 14 Oeste 53 Oeste 0.2 923.4 4 53
2020-03-02 18:00:00 7.2 13 Oeste 49 Oeste 0 921.5 3.1 48
2020-03-02 17:00:00 8.8 18 Oeste 55 Oeste 0 920.6 2.9 42
2020-03-02 16:00:00 8.6 19 Oeste 57 Oeste 0 919.4 2 43
2020-03-02 15:00:00 8.7 23 Oeste 60 Oeste 0 918.4 1.7 46
2020-03-02 14:00:00 9.5 18 Oeste 62 Oeste 0 917.7 1.4 47
2020-03-02 13:00:00 8.6 17 Oeste 51 Oeste 0 917.4 2.4 58
2020-03-02 12:00:00 7.9 14 Oeste 53 Oeste 0 916.7 3 64
2020-03-02 11:00:00 6.8 18 Oeste 58 Oeste 0.2 916.3 4.1 66
2020-03-02 10:00:00 6.9 22 Oeste 61 Oeste 0 915 4.6 62
2020-03-02 09:00:00 6 15 Oeste 43 Oeste 0 913.7 5.3 76
2020-03-02 08:00:00 6 18 Oeste 61 Oeste 0 912.2 5.7 70
2020-03-02 07:00:00 8.5 22 Oeste 73 Oeste 0.2 910.4 3.3 66
2020-03-02 06:00:00 9.2 29 Oeste 97 Oeste 0 908.4 0.3 71
2020-03-02 05:00:00 11.1 39 Sudoeste 90 Sudoeste 0 906.5 -3.2 70
2020-03-02 04:00:00 11 43 Sudoeste 87 Sudoeste 0.2 907.1 -3.9 68
2020-03-02 03:00:00 11.2 51 Sudoeste 90 Sudoeste 0 908.1 -4.7 68
2020-03-02 02:00:00 10.6 37 Sudoeste 71 Sudoeste 0.2 909.7 -4.4 74
2020-03-02 01:00:00 10 36 Sudoeste 72 Sudoeste 0.4 911 -4.6 79
2020-03-02 00:00:00 9.7 28 Sudoeste 49 Sudoeste 0.8 912.8 -3.9 82